sensor_id;sensor_type;location;lat;lon;timestamp;temperature;humidity
10336;DHT22;5213;53.548;9.930;2023-12-29T00:01:57;10.50;1.00
10336;DHT22;5213;53.548;9.930;2023-12-29T00:04:25;9.90;99.90
10336;DHT22;5213;53.548;9.930;2023-12-29T00:06:50;9.70;1.00
10336;DHT22;5213;53.548;9.930;2023-12-29T00:09:16;10.00;99.90
10336;DHT22;5213;53.548;9.930;2023-12-29T00:11:42;9.70;99.90
10336;DHT22;5213;53.548;9.930;2023-12-29T00:14:07;9.60;99.90
10336;DHT22;5213;53.548;9.930;2023-12-29T00:16:33;9.50;99.90
10336;DHT22;5213;53.548;9.930;2023-12-29T00:18:58;9.50;99.90
10336;DHT22;5213;53.548;9.930;2023-12-29T00:21:24;9.30;1.00
10336;DHT22;5213;53.548;9.930;2023-12-29T00:23:49;9.30;1.00
10336;DHT22;5213;53.548;9.930;2023-12-29T00:26:18;9.50;1.00
10336;DHT22;5213;53.548;9.930;2023-12-29T00:28:44;9.30;1.00
10336;DHT22;5213;53.548;9.930;2023-12-29T00:31:14;9.40;1.00
10336;DHT22;5213;53.548;9.930;2023-12-29T00:33:41;9.60;1.00
10336;DHT22;5213;53.548;9.930;2023-12-29T00:36:07;9.50;1.00
10336;DHT22;5213;53.548;9.930;2023-12-29T00:38:33;9.40;1.00
10336;DHT22;5213;53.548;9.930;2023-12-29T00:40:59;9.50;99.90
10336;DHT22;5213;53.548;9.930;2023-12-29T00:43:25;9.50;99.90
10336;DHT22;5213;53.548;9.930;2023-12-29T00:45:50;9.70;99.90
10336;DHT22;5213;53.548;9.930;2023-12-29T00:48:16;9.70;99.90
10336;DHT22;5213;53.548;9.930;2023-12-29T00:50:42;9.80;99.90
10336;DHT22;5213;53.548;9.930;2023-12-29T00:53:07;9.60;99.90
10336;DHT22;5213;53.548;9.930;2023-12-29T00:55:33;10.30;99.90
10336;DHT22;5213;53.548;9.930;2023-12-29T00:57:59;9.70;99.90
10336;DHT22;5213;53.548;9.930;2023-12-29T01:00:24;10.20;99.90
10336;DHT22;5213;53.548;9.930;2023-12-29T01:02:50;10.40;1.00
10336;DHT22;5213;53.548;9.930;2023-12-29T01:05:16;9.80;99.90
10336;DHT22;5213;53.548;9.930;2023-12-29T01:07:42;9.80;1.00
10336;DHT22;5213;53.548;9.930;2023-12-29T01:10:08;10.00;1.00
10336;DHT22;5213;53.548;9.930;2023-12-29T01:12:34;9.90;99.90
10336;DHT22;5213;53.548;9.930;2023-12-29T01:14:59;10.10;1.00
10336;DHT22;5213;53.548;9.930;2023-12-29T01:17:25;10.20;1.00
10336;DHT22;5213;53.548;9.930;2023-12-29T01:19:52;10.10;99.90
10336;DHT22;5213;53.548;9.930;2023-12-29T01:22:18;9.80;99.90
10336;DHT22;5213;53.548;9.930;2023-12-29T01:24:44;10.00;1.00
10336;DHT22;5213;53.548;9.930;2023-12-29T01:27:09;9.60;1.00
10336;DHT22;5213;53.548;9.930;2023-12-29T01:29:35;9.60;1.00
10336;DHT22;5213;53.548;9.930;2023-12-29T01:32:01;9.60;1.00
10336;DHT22;5213;53.548;9.930;2023-12-29T01:34:29;9.80;99.90
10336;DHT22;5213;53.548;9.930;2023-12-29T01:36:58;9.50;1.00
10336;DHT22;5213;53.548;9.930;2023-12-29T01:39:24;9.40;1.00
10336;DHT22;5213;53.548;9.930;2023-12-29T01:41:49;9.40;99.90
10336;DHT22;5213;53.548;9.930;2023-12-29T01:44:21;9.30;1.00
10336;DHT22;5213;53.548;9.930;2023-12-29T01:46:49;9.50;1.00
10336;DHT22;5213;53.548;9.930;2023-12-29T01:49:16;9.60;1.00
10336;DHT22;5213;53.548;9.930;2023-12-29T01:51:44;9.70;1.00
10336;DHT22;5213;53.548;9.930;2023-12-29T01:54:12;10.20;99.90
10336;DHT22;5213;53.548;9.930;2023-12-29T01:56:38;9.70;99.90
10336;DHT22;5213;53.548;9.930;2023-12-29T01:59:04;9.60;1.00
10336;DHT22;5213;53.548;9.930;2023-12-29T02:01:30;9.70;99.90
10336;DHT22;5213;53.548;9.930;2023-12-29T02:03:56;10.20;1.00
10336;DHT22;5213;53.548;9.930;2023-12-29T02:06:22;9.70;1.00
10336;DHT22;5213;53.548;9.930;2023-12-29T02:08:49;9.60;99.90
10336;DHT22;5213;53.548;9.930;2023-12-29T02:11:17;9.90;99.90
10336;DHT22;5213;53.548;9.930;2023-12-29T02:13:42;9.80;1.00
10336;DHT22;5213;53.548;9.930;2023-12-29T02:16:26;9.80;99.90
10336;DHT22;5213;53.548;9.930;2023-12-29T02:18:55;9.70;99.90
10336;DHT22;5213;53.548;9.930;2023-12-29T02:21:24;9.80;99.90
10336;DHT22;5213;53.548;9.930;2023-12-29T02:23:50;9.70;99.90
10336;DHT22;5213;53.548;9.930;2023-12-29T02:26:16;9.80;99.90
10336;DHT22;5213;53.548;9.930;2023-12-29T02:28:47;9.70;99.90
10336;DHT22;5213;53.548;9.930;2023-12-29T02:31:20;9.60;99.90
10336;DHT22;5213;53.548;9.930;2023-12-29T02:33:47;9.60;1.00
10336;DHT22;5213;53.548;9.930;2023-12-29T02:36:16;9.80;1.00
10336;DHT22;5213;53.548;9.930;2023-12-29T02:38:42;9.70;1.00
10336;DHT22;5213;53.548;9.930;2023-12-29T02:41:08;10.10;9.20
10336;DHT22;5213;53.548;9.930;2023-12-29T02:43:34;10.20;1.00
10336;DHT22;5213;53.548;9.930;2023-12-29T02:45:59;9.70;1.00
10336;DHT22;5213;53.548;9.930;2023-12-29T02:48:25;9.80;1.00
10336;DHT22;5213;53.548;9.930;2023-12-29T02:50:50;9.80;99.90
10336;DHT22;5213;53.548;9.930;2023-12-29T02:53:16;9.80;99.90
10336;DHT22;5213;53.548;9.930;2023-12-29T02:55:42;10.20;1.00
10336;DHT22;5213;53.548;9.930;2023-12-29T02:58:08;10.10;99.90
10336;DHT22;5213;53.548;9.930;2023-12-29T03:00:34;9.70;99.90
10336;DHT22;5213;53.548;9.930;2023-12-29T03:02:59;10.00;99.90
10336;DHT22;5213;53.548;9.930;2023-12-29T03:05:25;9.90;1.00
10336;DHT22;5213;53.548;9.930;2023-12-29T03:07:51;9.80;1.00
10336;DHT22;5213;53.548;9.930;2023-12-29T03:10:16;9.80;1.00
10336;DHT22;5213;53.548;9.930;2023-12-29T03:12:42;9.70;1.00
10336;DHT22;5213;53.548;9.930;2023-12-29T03:15:08;9.90;1.00
10336;DHT22;5213;53.548;9.930;2023-12-29T03:17:34;9.80;1.00
10336;DHT22;5213;53.548;9.930;2023-12-29T03:19:59;9.80;99.90
10336;DHT22;5213;53.548;9.930;2023-12-29T03:22:25;9.90;1.00
10336;DHT22;5213;53.548;9.930;2023-12-29T03:24:50;9.30;85.30
10336;DHT22;5213;53.548;9.930;2023-12-29T03:27:16;9.30;99.90
10336;DHT22;5213;53.548;9.930;2023-12-29T03:29:41;9.10;1.00
10336;DHT22;5213;53.548;9.930;2023-12-29T03:32:07;9.00;1.00
10336;DHT22;5213;53.548;9.930;2023-12-29T03:34:33;9.10;1.00
10336;DHT22;5213;53.548;9.930;2023-12-29T03:36:58;9.40;1.00
10336;DHT22;5213;53.548;9.930;2023-12-29T03:39:24;9.30;1.00
10336;DHT22;5213;53.548;9.930;2023-12-29T03:41:50;9.20;1.00
10336;DHT22;5213;53.548;9.930;2023-12-29T03:44:15;9.20;6.00
10336;DHT22;5213;53.548;9.930;2023-12-29T03:46:43;9.00;1.00
10336;DHT22;5213;53.548;9.930;2023-12-29T03:49:09;9.30;99.90
10336;DHT22;5213;53.548;9.930;2023-12-29T03:51:35;9.10;99.90
10336;DHT22;5213;53.548;9.930;2023-12-29T03:54:00;9.10;99.90
10336;DHT22;5213;53.548;9.930;2023-12-29T03:56:26;9.20;99.90
10336;DHT22;5213;53.548;9.930;2023-12-29T03:58:52;9.40;99.90
10336;DHT22;5213;53.548;9.930;2023-12-29T04:01:18;9.30;1.00
10336;DHT22;5213;53.548;9.930;2023-12-29T04:03:45;9.20;1.00
10336;DHT22;5213;53.548;9.930;2023-12-29T04:06:11;9.30;16.30
10336;DHT22;5213;53.548;9.930;2023-12-29T04:08:37;9.40;99.90
10336;DHT22;5213;53.548;9.930;2023-12-29T04:11:04;9.10;99.90
10336;DHT22;5213;53.548;9.930;2023-12-29T04:13:30;8.90;99.90
10336;DHT22;5213;53.548;9.930;2023-12-29T04:15:56;8.80;99.90
10336;DHT22;5213;53.548;9.930;2023-12-29T04:18:23;8.50;99.90
10336;DHT22;5213;53.548;9.930;2023-12-29T04:20:49;8.40;55.00
10336;DHT22;5213;53.548;9.930;2023-12-29T04:23:14;7.80;99.90
10336;DHT22;5213;53.548;9.930;2023-12-29T04:25:40;7.60;99.90
10336;DHT22;5213;53.548;9.930;2023-12-29T04:28:07;7.00;99.90
10336;DHT22;5213;53.548;9.930;2023-12-29T04:30:33;6.90;99.90
10336;DHT22;5213;53.548;9.930;2023-12-29T04:32:58;6.70;99.90
10336;DHT22;5213;53.548;9.930;2023-12-29T04:35:24;6.60;99.90
10336;DHT22;5213;53.548;9.930;2023-12-29T04:37:50;6.70;99.90
10336;DHT22;5213;53.548;9.930;2023-12-29T04:40:16;6.60;99.90
10336;DHT22;5213;53.548;9.930;2023-12-29T04:42:42;6.80;99.90
10336;DHT22;5213;53.548;9.930;2023-12-29T04:45:09;6.60;99.90
10336;DHT22;5213;53.548;9.930;2023-12-29T04:47:35;6.70;99.90
10336;DHT22;5213;53.548;9.930;2023-12-29T04:50:01;6.90;99.90
10336;DHT22;5213;53.548;9.930;2023-12-29T04:52:27;6.70;99.90
10336;DHT22;5213;53.548;9.930;2023-12-29T04:54:53;6.60;99.90
10336;DHT22;5213;53.548;9.930;2023-12-29T04:57:18;6.60;99.90
10336;DHT22;5213;53.548;9.930;2023-12-29T04:59:44;6.60;99.90
10336;DHT22;5213;53.548;9.930;2023-12-29T05:02:09;6.50;99.90
10336;DHT22;5213;53.548;9.930;2023-12-29T05:04:35;6.60;99.90
10336;DHT22;5213;53.548;9.930;2023-12-29T05:07:01;7.10;99.90
10336;DHT22;5213;53.548;9.930;2023-12-29T05:09:26;6.90;99.90
10336;DHT22;5213;53.548;9.930;2023-12-29T05:11:52;6.70;99.90
10336;DHT22;5213;53.548;9.930;2023-12-29T05:14:17;7.00;99.90
10336;DHT22;5213;53.548;9.930;2023-12-29T05:16:43;6.80;99.90
10336;DHT22;5213;53.548;9.930;2023-12-29T05:19:09;6.90;99.90
10336;DHT22;5213;53.548;9.930;2023-12-29T05:21:34;6.90;99.90
10336;DHT22;5213;53.548;9.930;2023-12-29T05:24:00;6.90;99.90
10336;DHT22;5213;53.548;9.930;2023-12-29T05:26:26;7.00;99.90
10336;DHT22;5213;53.548;9.930;2023-12-29T05:28:51;6.80;99.90
10336;DHT22;5213;53.548;9.930;2023-12-29T05:31:17;6.80;99.90
10336;DHT22;5213;53.548;9.930;2023-12-29T05:33:44;6.70;99.90
10336;DHT22;5213;53.548;9.930;2023-12-29T05:36:10;6.70;99.90
10336;DHT22;5213;53.548;9.930;2023-12-29T05:38:39;6.80;99.90
10336;DHT22;5213;53.548;9.930;2023-12-29T05:41:06;6.80;99.90
10336;DHT22;5213;53.548;9.930;2023-12-29T05:43:32;6.90;99.90
10336;DHT22;5213;53.548;9.930;2023-12-29T05:45:59;6.80;99.90
10336;DHT22;5213;53.548;9.930;2023-12-29T05:48:25;7.20;99.90
10336;DHT22;5213;53.548;9.930;2023-12-29T05:50:51;7.50;99.90
10336;DHT22;5213;53.548;9.930;2023-12-29T05:53:17;7.30;99.90
10336;DHT22;5213;53.548;9.930;2023-12-29T05:55:45;7.10;99.90
10336;DHT22;5213;53.548;9.930;2023-12-29T05:58:12;7.20;99.90
10336;DHT22;5213;53.548;9.930;2023-12-29T06:00:38;7.20;99.90
10336;DHT22;5213;53.548;9.930;2023-12-29T06:03:05;7.40;99.90
10336;DHT22;5213;53.548;9.930;2023-12-29T06:05:32;7.50;99.90
10336;DHT22;5213;53.548;9.930;2023-12-29T06:07:58;7.60;99.90
10336;DHT22;5213;53.548;9.930;2023-12-29T06:10:23;7.60;99.90
10336;DHT22;5213;53.548;9.930;2023-12-29T06:12:49;7.40;99.90
10336;DHT22;5213;53.548;9.930;2023-12-29T06:15:15;7.80;99.90
10336;DHT22;5213;53.548;9.930;2023-12-29T06:17:40;7.80;99.90
10336;DHT22;5213;53.548;9.930;2023-12-29T06:20:08;7.90;99.90
10336;DHT22;5213;53.548;9.930;2023-12-29T06:22:39;7.70;99.90
10336;DHT22;5213;53.548;9.930;2023-12-29T06:25:08;7.70;99.90
10336;DHT22;5213;53.548;9.930;2023-12-29T06:27:33;7.60;99.90
10336;DHT22;5213;53.548;9.930;2023-12-29T06:30:03;7.60;99.90
10336;DHT22;5213;53.548;9.930;2023-12-29T06:32:29;7.40;99.90
10336;DHT22;5213;53.548;9.930;2023-12-29T06:34:55;7.50;99.90
10336;DHT22;5213;53.548;9.930;2023-12-29T06:37:20;7.60;99.90
10336;DHT22;5213;53.548;9.930;2023-12-29T06:39:46;7.40;99.90
10336;DHT22;5213;53.548;9.930;2023-12-29T06:42:12;7.20;99.90
10336;DHT22;5213;53.548;9.930;2023-12-29T06:44:37;7.20;99.90
10336;DHT22;5213;53.548;9.930;2023-12-29T06:47:03;7.40;99.90
10336;DHT22;5213;53.548;9.930;2023-12-29T06:49:31;7.20;99.90
10336;DHT22;5213;53.548;9.930;2023-12-29T06:51:57;7.20;99.90
10336;DHT22;5213;53.548;9.930;2023-12-29T06:54:22;7.30;99.90
10336;DHT22;5213;53.548;9.930;2023-12-29T06:56:48;7.40;99.90
10336;DHT22;5213;53.548;9.930;2023-12-29T06:59:14;7.30;99.90
10336;DHT22;5213;53.548;9.930;2023-12-29T07:01:39;7.60;99.90
10336;DHT22;5213;53.548;9.930;2023-12-29T07:04:07;7.50;99.90
10336;DHT22;5213;53.548;9.930;2023-12-29T07:06:36;8.10;99.90
10336;DHT22;5213;53.548;9.930;2023-12-29T07:09:02;7.80;99.90
10336;DHT22;5213;53.548;9.930;2023-12-29T07:11:28;7.90;99.90
10336;DHT22;5213;53.548;9.930;2023-12-29T07:13:54;7.80;99.90
10336;DHT22;5213;53.548;9.930;2023-12-29T07:16:20;7.90;99.90
10336;DHT22;5213;53.548;9.930;2023-12-29T07:18:46;8.20;99.90
10336;DHT22;5213;53.548;9.930;2023-12-29T07:21:12;7.80;99.90
10336;DHT22;5213;53.548;9.930;2023-12-29T07:23:38;8.10;99.90
10336;DHT22;5213;53.548;9.930;2023-12-29T07:26:04;8.10;99.90
10336;DHT22;5213;53.548;9.930;2023-12-29T07:28:32;8.20;99.90
10336;DHT22;5213;53.548;9.930;2023-12-29T07:30:57;7.90;99.90
10336;DHT22;5213;53.548;9.930;2023-12-29T07:33:23;8.30;99.90
10336;DHT22;5213;53.548;9.930;2023-12-29T07:35:50;8.00;99.90
10336;DHT22;5213;53.548;9.930;2023-12-29T07:38:16;8.00;99.90
10336;DHT22;5213;53.548;9.930;2023-12-29T07:40:42;8.20;99.90
10336;DHT22;5213;53.548;9.930;2023-12-29T07:43:07;8.30;99.90
10336;DHT22;5213;53.548;9.930;2023-12-29T07:45:33;8.10;99.90
10336;DHT22;5213;53.548;9.930;2023-12-29T07:47:59;8.10;99.90
10336;DHT22;5213;53.548;9.930;2023-12-29T07:50:24;8.10;99.90
10336;DHT22;5213;53.548;9.930;2023-12-29T07:52:50;8.50;99.90
10336;DHT22;5213;53.548;9.930;2023-12-29T07:55:16;8.20;99.90
10336;DHT22;5213;53.548;9.930;2023-12-29T07:57:42;8.20;99.90
10336;DHT22;5213;53.548;9.930;2023-12-29T08:00:09;8.20;99.90
10336;DHT22;5213;53.548;9.930;2023-12-29T08:02:35;8.40;99.90
10336;DHT22;5213;53.548;9.930;2023-12-29T08:05:01;8.30;99.90
10336;DHT22;5213;53.548;9.930;2023-12-29T08:07:27;8.40;1.00
10336;DHT22;5213;53.548;9.930;2023-12-29T08:09:53;8.40;1.00
10336;DHT22;5213;53.548;9.930;2023-12-29T08:12:18;8.50;1.00
10336;DHT22;5213;53.548;9.930;2023-12-29T08:14:44;8.50;1.00
10336;DHT22;5213;53.548;9.930;2023-12-29T08:17:10;8.50;1.00
10336;DHT22;5213;53.548;9.930;2023-12-29T08:19:36;8.30;1.00
10336;DHT22;5213;53.548;9.930;2023-12-29T08:22:02;8.60;1.00
10336;DHT22;5213;53.548;9.930;2023-12-29T08:24:28;8.40;1.00
10336;DHT22;5213;53.548;9.930;2023-12-29T08:26:53;8.40;1.00
10336;DHT22;5213;53.548;9.930;2023-12-29T08:29:19;8.30;1.00
10336;DHT22;5213;53.548;9.930;2023-12-29T08:31:45;8.40;1.00
10336;DHT22;5213;53.548;9.930;2023-12-29T08:34:11;8.30;1.00
10336;DHT22;5213;53.548;9.930;2023-12-29T08:36:36;8.60;1.00
10336;DHT22;5213;53.548;9.930;2023-12-29T08:39:02;8.50;1.00
10336;DHT22;5213;53.548;9.930;2023-12-29T08:41:28;8.80;1.00
10336;DHT22;5213;53.548;9.930;2023-12-29T08:43:53;9.20;1.00
10336;DHT22;5213;53.548;9.930;2023-12-29T08:46:19;8.80;1.00
10336;DHT22;5213;53.548;9.930;2023-12-29T08:48:45;9.10;1.00
10336;DHT22;5213;53.548;9.930;2023-12-29T08:51:11;9.70;1.00
10336;DHT22;5213;53.548;9.930;2023-12-29T08:53:37;9.40;1.00
10336;DHT22;5213;53.548;9.930;2023-12-29T08:56:02;9.60;1.00
10336;DHT22;5213;53.548;9.930;2023-12-29T08:58:29;9.40;1.00
10336;DHT22;5213;53.548;9.930;2023-12-29T09:00:55;9.60;1.00
10336;DHT22;5213;53.548;9.930;2023-12-29T09:03:21;9.60;1.00
10336;DHT22;5213;53.548;9.930;2023-12-29T09:05:46;9.60;1.00
10336;DHT22;5213;53.548;9.930;2023-12-29T09:08:12;9.60;1.00
10336;DHT22;5213;53.548;9.930;2023-12-29T09:10:37;9.40;1.00
10336;DHT22;5213;53.548;9.930;2023-12-29T09:13:04;9.20;99.90
10336;DHT22;5213;53.548;9.930;2023-12-29T09:15:30;7.80;99.90
10336;DHT22;5213;53.548;9.930;2023-12-29T09:17:56;7.50;99.90
10336;DHT22;5213;53.548;9.930;2023-12-29T09:20:21;7.10;99.90
10336;DHT22;5213;53.548;9.930;2023-12-29T09:22:47;6.70;99.90
10336;DHT22;5213;53.548;9.930;2023-12-29T09:25:13;6.80;99.90
10336;DHT22;5213;53.548;9.930;2023-12-29T09:27:39;6.40;99.90
10336;DHT22;5213;53.548;9.930;2023-12-29T09:30:05;6.60;99.90
10336;DHT22;5213;53.548;9.930;2023-12-29T09:32:31;6.70;99.90
10336;DHT22;5213;53.548;9.930;2023-12-29T09:34:56;6.70;99.90
10336;DHT22;5213;53.548;9.930;2023-12-29T09:37:22;6.40;99.90
10336;DHT22;5213;53.548;9.930;2023-12-29T09:39:48;6.70;99.90
10336;DHT22;5213;53.548;9.930;2023-12-29T09:42:20;6.60;99.90
10336;DHT22;5213;53.548;9.930;2023-12-29T09:44:50;6.70;99.90
10336;DHT22;5213;53.548;9.930;2023-12-29T09:47:20;6.70;99.90
10336;DHT22;5213;53.548;9.930;2023-12-29T09:49:48;6.70;99.90
10336;DHT22;5213;53.548;9.930;2023-12-29T09:52:16;6.80;99.90
10336;DHT22;5213;53.548;9.930;2023-12-29T09:54:42;6.80;99.90
10336;DHT22;5213;53.548;9.930;2023-12-29T09:57:09;6.70;99.90
10336;DHT22;5213;53.548;9.930;2023-12-29T09:59:35;6.70;99.90
10336;DHT22;5213;53.548;9.930;2023-12-29T10:02:05;6.70;99.90
10336;DHT22;5213;53.548;9.930;2023-12-29T10:04:30;6.70;99.90
10336;DHT22;5213;53.548;9.930;2023-12-29T10:06:57;6.60;99.90
10336;DHT22;5213;53.548;9.930;2023-12-29T10:09:30;6.70;99.90
10336;DHT22;5213;53.548;9.930;2023-12-29T10:11:56;6.60;99.90
10336;DHT22;5213;53.548;9.930;2023-12-29T10:14:30;6.40;99.90
10336;DHT22;5213;53.548;9.930;2023-12-29T10:17:09;6.40;99.90
10336;DHT22;5213;53.548;9.930;2023-12-29T10:19:44;6.20;99.90
10336;DHT22;5213;53.548;9.930;2023-12-29T10:22:48;6.30;99.90
10336;DHT22;5213;53.548;9.930;2023-12-29T10:25:06;6.40;99.90
10336;DHT22;5213;53.548;9.930;2023-12-29T10:27:32;6.30;99.90
10336;DHT22;5213;53.548;9.930;2023-12-29T10:29:59;6.30;99.90
10336;DHT22;5213;53.548;9.930;2023-12-29T10:32:25;6.40;99.90
10336;DHT22;5213;53.548;9.930;2023-12-29T10:35:08;6.50;99.90
10336;DHT22;5213;53.548;9.930;2023-12-29T10:37:38;6.40;99.90
10336;DHT22;5213;53.548;9.930;2023-12-29T10:40:26;6.40;99.90
10336;DHT22;5213;53.548;9.930;2023-12-29T10:42:55;6.50;99.90
10336;DHT22;5213;53.548;9.930;2023-12-29T10:45:23;6.50;99.90
10336;DHT22;5213;53.548;9.930;2023-12-29T10:47:52;6.50;99.90
10336;DHT22;5213;53.548;9.930;2023-12-29T10:50:19;6.60;99.90
10336;DHT22;5213;53.548;9.930;2023-12-29T10:52:45;6.50;99.90
10336;DHT22;5213;53.548;9.930;2023-12-29T10:55:12;6.70;99.90
10336;DHT22;5213;53.548;9.930;2023-12-29T10:57:38;6.70;99.90
10336;DHT22;5213;53.548;9.930;2023-12-29T11:00:05;6.70;99.90
10336;DHT22;5213;53.548;9.930;2023-12-29T11:02:35;6.70;99.90
10336;DHT22;5213;53.548;9.930;2023-12-29T11:05:04;6.50;99.90
10336;DHT22;5213;53.548;9.930;2023-12-29T11:07:41;6.70;99.90
10336;DHT22;5213;53.548;9.930;2023-12-29T11:10:09;6.80;99.90
10336;DHT22;5213;53.548;9.930;2023-12-29T11:12:36;6.90;99.90
10336;DHT22;5213;53.548;9.930;2023-12-29T11:15:04;6.80;99.90
10336;DHT22;5213;53.548;9.930;2023-12-29T11:17:31;7.00;99.90
10336;DHT22;5213;53.548;9.930;2023-12-29T11:20:02;7.10;99.90
10336;DHT22;5213;53.548;9.930;2023-12-29T11:22:32;7.20;99.90
10336;DHT22;5213;53.548;9.930;2023-12-29T11:25:01;7.70;99.90
10336;DHT22;5213;53.548;9.930;2023-12-29T11:27:30;7.50;99.90
10336;DHT22;5213;53.548;9.930;2023-12-29T11:30:00;7.40;99.90
10336;DHT22;5213;53.548;9.930;2023-12-29T11:35:29;7.60;99.90
10336;DHT22;5213;53.548;9.930;2023-12-29T11:41:39;7.60;99.90
10336;DHT22;5213;53.548;9.930;2023-12-29T11:44:06;7.60;99.90
10336;DHT22;5213;53.548;9.930;2023-12-29T11:48:58;7.50;99.90
10336;DHT22;5213;53.548;9.930;2023-12-29T11:53:59;7.50;99.90
10336;DHT22;5213;53.548;9.930;2023-12-29T11:56:26;7.30;99.90
10336;DHT22;5213;53.548;9.930;2023-12-29T11:58:55;7.30;99.90
10336;DHT22;5213;53.548;9.930;2023-12-29T12:01:33;7.30;99.90
10336;DHT22;5213;53.548;9.930;2023-12-29T12:04:00;7.40;99.90
10336;DHT22;5213;53.548;9.930;2023-12-29T12:06:38;7.30;99.90
10336;DHT22;5213;53.548;9.930;2023-12-29T12:09:25;7.20;99.90
10336;DHT22;5213;53.548;9.930;2023-12-29T12:11:51;7.30;99.90
10336;DHT22;5213;53.548;9.930;2023-12-29T12:14:45;7.30;99.90
10336;DHT22;5213;53.548;9.930;2023-12-29T12:17:11;7.50;99.90
10336;DHT22;5213;53.548;9.930;2023-12-29T12:19:37;7.60;99.90
10336;DHT22;5213;53.548;9.930;2023-12-29T12:22:03;7.70;99.90
10336;DHT22;5213;53.548;9.930;2023-12-29T12:24:33;7.70;99.90
10336;DHT22;5213;53.548;9.930;2023-12-29T12:27:00;7.90;99.90
10336;DHT22;5213;53.548;9.930;2023-12-29T12:29:27;8.20;99.90
10336;DHT22;5213;53.548;9.930;2023-12-29T12:31:57;8.30;99.90
10336;DHT22;5213;53.548;9.930;2023-12-29T12:34:23;8.20;99.90
10336;DHT22;5213;53.548;9.930;2023-12-29T12:36:52;7.90;99.90
10336;DHT22;5213;53.548;9.930;2023-12-29T12:39:18;8.00;99.90
10336;DHT22;5213;53.548;9.930;2023-12-29T12:41:44;8.00;99.90
10336;DHT22;5213;53.548;9.930;2023-12-29T12:44:14;8.10;99.90
10336;DHT22;5213;53.548;9.930;2023-12-29T12:46:50;8.00;99.90
10336;DHT22;5213;53.548;9.930;2023-12-29T12:49:20;8.00;99.90
10336;DHT22;5213;53.548;9.930;2023-12-29T12:51:46;7.90;99.90
10336;DHT22;5213;53.548;9.930;2023-12-29T12:54:13;8.10;99.90
10336;DHT22;5213;53.548;9.930;2023-12-29T12:56:42;8.40;99.90
10336;DHT22;5213;53.548;9.930;2023-12-29T12:59:08;8.10;99.90
10336;DHT22;5213;53.548;9.930;2023-12-29T13:01:35;8.20;99.90
10336;DHT22;5213;53.548;9.930;2023-12-29T13:04:03;8.30;99.90
10336;DHT22;5213;53.548;9.930;2023-12-29T13:06:29;8.30;99.90
10336;DHT22;5213;53.548;9.930;2023-12-29T13:08:54;8.20;99.90
10336;DHT22;5213;53.548;9.930;2023-12-29T13:11:21;8.10;99.90
10336;DHT22;5213;53.548;9.930;2023-12-29T13:13:51;8.40;99.90
10336;DHT22;5213;53.548;9.930;2023-12-29T13:16:51;8.10;99.90
10336;DHT22;5213;53.548;9.930;2023-12-29T13:19:24;8.10;99.90
10336;DHT22;5213;53.548;9.930;2023-12-29T13:21:52;8.10;99.90
10336;DHT22;5213;53.548;9.930;2023-12-29T13:24:21;8.30;99.90
10336;DHT22;5213;53.548;9.930;2023-12-29T13:26:51;7.90;99.90
10336;DHT22;5213;53.548;9.930;2023-12-29T13:29:22;8.00;99.90
10336;DHT22;5213;53.548;9.930;2023-12-29T13:31:52;8.00;99.90
10336;DHT22;5213;53.548;9.930;2023-12-29T13:34:33;7.90;99.90
10336;DHT22;5213;53.548;9.930;2023-12-29T13:37:09;8.00;99.90
10336;DHT22;5213;53.548;9.930;2023-12-29T13:39:44;7.90;99.90
10336;DHT22;5213;53.548;9.930;2023-12-29T13:42:12;7.60;99.90
10336;DHT22;5213;53.548;9.930;2023-12-29T13:44:41;7.80;99.90
10336;DHT22;5213;53.548;9.930;2023-12-29T13:47:08;7.80;99.90
10336;DHT22;5213;53.548;9.930;2023-12-29T13:49:34;7.80;99.90
10336;DHT22;5213;53.548;9.930;2023-12-29T13:52:03;7.90;99.90
10336;DHT22;5213;53.548;9.930;2023-12-29T13:54:28;7.80;99.90
10336;DHT22;5213;53.548;9.930;2023-12-29T13:56:55;7.90;99.90
10336;DHT22;5213;53.548;9.930;2023-12-29T13:59:30;7.60;99.90
10336;DHT22;5213;53.548;9.930;2023-12-29T14:02:03;7.50;99.90
10336;DHT22;5213;53.548;9.930;2023-12-29T14:04:29;7.30;99.90
10336;DHT22;5213;53.548;9.930;2023-12-29T14:07:01;7.20;99.90
10336;DHT22;5213;53.548;9.930;2023-12-29T14:09:28;7.20;99.90
10336;DHT22;5213;53.548;9.930;2023-12-29T14:11:53;7.10;99.90
10336;DHT22;5213;53.548;9.930;2023-12-29T14:14:23;7.00;99.90
10336;DHT22;5213;53.548;9.930;2023-12-29T14:16:50;7.30;99.90
10336;DHT22;5213;53.548;9.930;2023-12-29T14:19:18;7.00;99.90
10336;DHT22;5213;53.548;9.930;2023-12-29T14:21:45;7.30;99.90
10336;DHT22;5213;53.548;9.930;2023-12-29T14:24:13;7.00;99.90
10336;DHT22;5213;53.548;9.930;2023-12-29T14:27:02;7.00;99.90
10336;DHT22;5213;53.548;9.930;2023-12-29T14:29:28;7.00;99.90
10336;DHT22;5213;53.548;9.930;2023-12-29T14:31:54;7.20;99.90
10336;DHT22;5213;53.548;9.930;2023-12-29T14:34:22;7.40;99.90
10336;DHT22;5213;53.548;9.930;2023-12-29T14:36:48;7.40;99.90
10336;DHT22;5213;53.548;9.930;2023-12-29T14:39:13;7.40;99.90
10336;DHT22;5213;53.548;9.930;2023-12-29T14:41:41;7.30;99.90
10336;DHT22;5213;53.548;9.930;2023-12-29T14:44:06;7.30;99.90
10336;DHT22;5213;53.548;9.930;2023-12-29T14:46:32;7.20;99.90
10336;DHT22;5213;53.548;9.930;2023-12-29T14:49:02;7.20;99.90
10336;DHT22;5213;53.548;9.930;2023-12-29T14:51:28;7.40;99.90
10336;DHT22;5213;53.548;9.930;2023-12-29T14:53:53;7.10;99.90
10336;DHT22;5213;53.548;9.930;2023-12-29T14:56:19;7.20;99.90
10336;DHT22;5213;53.548;9.930;2023-12-29T14:58:45;7.00;99.90
10336;DHT22;5213;53.548;9.930;2023-12-29T15:01:11;7.20;99.90
10336;DHT22;5213;53.548;9.930;2023-12-29T15:03:37;7.20;99.90
10336;DHT22;5213;53.548;9.930;2023-12-29T15:06:05;7.10;99.90
10336;DHT22;5213;53.548;9.930;2023-12-29T15:08:32;7.20;99.90
10336;DHT22;5213;53.548;9.930;2023-12-29T15:11:04;7.00;99.90
10336;DHT22;5213;53.548;9.930;2023-12-29T15:13:31;7.10;99.90
10336;DHT22;5213;53.548;9.930;2023-12-29T15:16:01;7.10;99.90
10336;DHT22;5213;53.548;9.930;2023-12-29T15:18:29;7.40;99.90
10336;DHT22;5213;53.548;9.930;2023-12-29T15:20:56;7.40;99.90
10336;DHT22;5213;53.548;9.930;2023-12-29T15:23:22;7.40;99.90
10336;DHT22;5213;53.548;9.930;2023-12-29T15:25:49;7.40;99.90
10336;DHT22;5213;53.548;9.930;2023-12-29T15:28:15;7.40;99.90
10336;DHT22;5213;53.548;9.930;2023-12-29T15:30:42;7.40;99.90
10336;DHT22;5213;53.548;9.930;2023-12-29T15:33:08;7.40;99.90
10336;DHT22;5213;53.548;9.930;2023-12-29T15:35:33;7.40;99.90
10336;DHT22;5213;53.548;9.930;2023-12-29T15:37:59;7.60;99.90
10336;DHT22;5213;53.548;9.930;2023-12-29T15:40:25;7.50;99.90
10336;DHT22;5213;53.548;9.930;2023-12-29T15:42:50;7.50;99.90
10336;DHT22;5213;53.548;9.930;2023-12-29T15:45:16;7.70;99.90
10336;DHT22;5213;53.548;9.930;2023-12-29T15:47:44;7.60;99.90
10336;DHT22;5213;53.548;9.930;2023-12-29T15:50:09;7.60;99.90
10336;DHT22;5213;53.548;9.930;2023-12-29T15:52:35;7.70;99.90
10336;DHT22;5213;53.548;9.930;2023-12-29T15:55:01;7.60;99.90
10336;DHT22;5213;53.548;9.930;2023-12-29T15:57:26;7.60;99.90
10336;DHT22;5213;53.548;9.930;2023-12-29T15:59:52;7.70;99.90
10336;DHT22;5213;53.548;9.930;2023-12-29T16:02:17;7.60;99.90
10336;DHT22;5213;53.548;9.930;2023-12-29T16:04:43;7.60;99.90
10336;DHT22;5213;53.548;9.930;2023-12-29T16:07:08;7.40;99.90
10336;DHT22;5213;53.548;9.930;2023-12-29T16:09:34;7.60;99.90
10336;DHT22;5213;53.548;9.930;2023-12-29T16:12:00;7.40;99.90
10336;DHT22;5213;53.548;9.930;2023-12-29T16:14:25;7.90;99.90
10336;DHT22;5213;53.548;9.930;2023-12-29T16:16:53;7.40;99.90